sensor_id;sensor_type;location;lat;lon;timestamp;pressure;altitude;pressure_sealevel;temperature;humidity
12969;BME280;6549;53.128;8.182;2023-08-06T00:02:15;100476.66;;;13.74;100.00
12969;BME280;6549;53.128;8.182;2023-08-06T00:05:16;100477.56;;;13.67;100.00
12969;BME280;6549;53.128;8.182;2023-08-06T00:08:21;100471.19;;;13.70;100.00
12969;BME280;6549;53.128;8.182;2023-08-06T00:11:21;100475.88;;;13.73;100.00
12969;BME280;6549;53.128;8.182;2023-08-06T00:14:21;100467.53;;;13.80;100.00
12969;BME280;6549;53.128;8.182;2023-08-06T00:17:22;100457.75;;;13.72;100.00
12969;BME280;6549;53.128;8.182;2023-08-06T00:20:22;100466.06;;;13.69;100.00
12969;BME280;6549;53.128;8.182;2023-08-06T00:23:22;100464.84;;;13.73;100.00
12969;BME280;6549;53.128;8.182;2023-08-06T00:26:23;100452.28;;;13.69;100.00
12969;BME280;6549;53.128;8.182;2023-08-06T00:29:24;100457.84;;;13.65;100.00
12969;BME280;6549;53.128;8.182;2023-08-06T00:32:25;100458.69;;;13.62;100.00
12969;BME280;6549;53.128;8.182;2023-08-06T00:35:25;100456.28;;;13.64;100.00
12969;BME280;6549;53.128;8.182;2023-08-06T00:38:25;100462.06;;;13.73;100.00
12969;BME280;6549;53.128;8.182;2023-08-06T00:41:26;100459.78;;;13.68;100.00
12969;BME280;6549;53.128;8.182;2023-08-06T00:44:26;100456.94;;;13.75;100.00
12969;BME280;6549;53.128;8.182;2023-08-06T00:47:26;100460.09;;;13.74;100.00
12969;BME280;6549;53.128;8.182;2023-08-06T00:50:27;100469.53;;;13.76;100.00
12969;BME280;6549;53.128;8.182;2023-08-06T00:53:27;100467.97;;;13.75;100.00
12969;BME280;6549;53.128;8.182;2023-08-06T00:56:28;100450.69;;;13.71;100.00
12969;BME280;6549;53.128;8.182;2023-08-06T00:59:29;100459.31;;;13.73;100.00
12969;BME280;6549;53.128;8.182;2023-08-06T01:02:30;100461.75;;;13.68;100.00
12969;BME280;6549;53.128;8.182;2023-08-06T01:05:31;100455.38;;;13.74;100.00
12969;BME280;6549;53.128;8.182;2023-08-06T01:08:45;100452.59;;;13.74;100.00
12969;BME280;6549;53.128;8.182;2023-08-06T01:15:30;100444.03;;;13.65;100.00
12969;BME280;6549;53.128;8.182;2023-08-06T01:18:32;100445.19;;;13.68;100.00
12969;BME280;6549;53.128;8.182;2023-08-06T01:21:32;100442.41;;;13.71;100.00
12969;BME280;6549;53.128;8.182;2023-08-06T01:24:33;100436.03;;;13.74;100.00
12969;BME280;6549;53.128;8.182;2023-08-06T01:27:38;100433.59;;;13.80;100.00
12969;BME280;6549;53.128;8.182;2023-08-06T01:30:44;100443.47;;;13.77;100.00
12969;BME280;6549;53.128;8.182;2023-08-06T01:33:47;100435.19;;;13.77;100.00
12969;BME280;6549;53.128;8.182;2023-08-06T01:36:50;100430.09;;;13.76;100.00
12969;BME280;6549;53.128;8.182;2023-08-06T01:39:51;100434.06;;;13.75;100.00
12969;BME280;6549;53.128;8.182;2023-08-06T01:42:51;100417.50;;;13.75;100.00
12969;BME280;6549;53.128;8.182;2023-08-06T01:45:52;100419.00;;;13.79;100.00
12969;BME280;6549;53.128;8.182;2023-08-06T01:48:52;100416.56;;;13.85;100.00
12969;BME280;6549;53.128;8.182;2023-08-06T01:51:52;100411.53;;;13.76;100.00
12969;BME280;6549;53.128;8.182;2023-08-06T01:54:53;100407.59;;;13.77;100.00
12969;BME280;6549;53.128;8.182;2023-08-06T01:57:53;100411.22;;;13.71;100.00
12969;BME280;6549;53.128;8.182;2023-08-06T02:00:53;100408.97;;;13.62;100.00
12969;BME280;6549;53.128;8.182;2023-08-06T02:03:54;100412.16;;;13.61;100.00
12969;BME280;6549;53.128;8.182;2023-08-06T02:06:54;100419.69;;;13.57;100.00
12969;BME280;6549;53.128;8.182;2023-08-06T02:09:54;100406.72;;;13.54;100.00
12969;BME280;6549;53.128;8.182;2023-08-06T02:12:54;100407.91;;;13.53;100.00
12969;BME280;6549;53.128;8.182;2023-08-06T02:15:55;100405.84;;;13.60;100.00
12969;BME280;6549;53.128;8.182;2023-08-06T02:18:55;100394.44;;;13.58;100.00
12969;BME280;6549;53.128;8.182;2023-08-06T02:21:56;100402.72;;;13.58;100.00
12969;BME280;6549;53.128;8.182;2023-08-06T02:24:56;100399.97;;;13.58;100.00
12969;BME280;6549;53.128;8.182;2023-08-06T02:27:56;100402.69;;;13.62;100.00
12969;BME280;6549;53.128;8.182;2023-08-06T02:30:57;100397.88;;;13.66;100.00
12969;BME280;6549;53.128;8.182;2023-08-06T02:33:57;100398.66;;;13.66;100.00
12969;BME280;6549;53.128;8.182;2023-08-06T02:36:58;100403.41;;;13.66;100.00
12969;BME280;6549;53.128;8.182;2023-08-06T02:39:58;100387.63;;;13.66;100.00
12969;BME280;6549;53.128;8.182;2023-08-06T02:42:59;100393.16;;;13.66;100.00
12969;BME280;6549;53.128;8.182;2023-08-06T02:46:00;100391.13;;;13.70;100.00
12969;BME280;6549;53.128;8.182;2023-08-06T02:49:00;100390.75;;;13.68;100.00
12969;BME280;6549;53.128;8.182;2023-08-06T02:52:00;100384.88;;;13.66;100.00
12969;BME280;6549;53.128;8.182;2023-08-06T02:55:01;100387.16;;;13.71;100.00
12969;BME280;6549;53.128;8.182;2023-08-06T02:58:02;100375.75;;;13.69;100.00
12969;BME280;6549;53.128;8.182;2023-08-06T03:01:05;100365.53;;;13.66;100.00
12969;BME280;6549;53.128;8.182;2023-08-06T03:04:06;100363.19;;;13.65;100.00
12969;BME280;6549;53.128;8.182;2023-08-06T03:07:06;100363.25;;;13.61;100.00
12969;BME280;6549;53.128;8.182;2023-08-06T03:10:06;100362.03;;;13.62;100.00
12969;BME280;6549;53.128;8.182;2023-08-06T03:13:07;100357.72;;;13.61;100.00
12969;BME280;6549;53.128;8.182;2023-08-06T03:16:08;100355.78;;;13.58;100.00
12969;BME280;6549;53.128;8.182;2023-08-06T03:19:08;100357.34;;;13.59;100.00
12969;BME280;6549;53.128;8.182;2023-08-06T03:22:08;100354.56;;;13.59;100.00
12969;BME280;6549;53.128;8.182;2023-08-06T03:25:09;100359.28;;;13.62;100.00
12969;BME280;6549;53.128;8.182;2023-08-06T03:28:09;100343.91;;;13.61;100.00
12969;BME280;6549;53.128;8.182;2023-08-06T03:31:09;100334.78;;;13.64;100.00
12969;BME280;6549;53.128;8.182;2023-08-06T03:34:10;100332.88;;;13.61;100.00
12969;BME280;6549;53.128;8.182;2023-08-06T03:37:10;100323.00;;;13.60;100.00
12969;BME280;6549;53.128;8.182;2023-08-06T03:40:10;100321.50;;;13.56;100.00
12969;BME280;6549;53.128;8.182;2023-08-06T03:43:11;100316.41;;;13.54;100.00
12969;BME280;6549;53.128;8.182;2023-08-06T03:46:11;100313.28;;;13.52;100.00
12969;BME280;6549;53.128;8.182;2023-08-06T03:49:11;100323.53;;;13.52;100.00
12969;BME280;6549;53.128;8.182;2023-08-06T03:52:12;100323.59;;;13.48;100.00
12969;BME280;6549;53.128;8.182;2023-08-06T03:55:12;100322.28;;;13.56;100.00
12969;BME280;6549;53.128;8.182;2023-08-06T03:58:13;100311.97;;;13.60;100.00
12969;BME280;6549;53.128;8.182;2023-08-06T04:01:13;100317.69;;;13.73;100.00
12969;BME280;6549;53.128;8.182;2023-08-06T04:04:13;100316.66;;;13.63;100.00
12969;BME280;6549;53.128;8.182;2023-08-06T04:07:14;100313.16;;;13.59;100.00
12969;BME280;6549;53.128;8.182;2023-08-06T04:10:14;100320.72;;;13.55;100.00
12969;BME280;6549;53.128;8.182;2023-08-06T04:13:14;100320.00;;;13.51;100.00
12969;BME280;6549;53.128;8.182;2023-08-06T04:16:15;100323.94;;;13.50;100.00
12969;BME280;6549;53.128;8.182;2023-08-06T04:19:15;100323.53;;;13.52;100.00
12969;BME280;6549;53.128;8.182;2023-08-06T04:22:15;100332.22;;;13.50;100.00
12969;BME280;6549;53.128;8.182;2023-08-06T04:25:16;100322.81;;;13.47;100.00
12969;BME280;6549;53.128;8.182;2023-08-06T04:28:20;100330.31;;;13.47;100.00
12969;BME280;6549;53.128;8.182;2023-08-06T04:31:21;100330.69;;;13.49;100.00
12969;BME280;6549;53.128;8.182;2023-08-06T04:34:23;100331.50;;;13.46;100.00
12969;BME280;6549;53.128;8.182;2023-08-06T04:37:23;100325.56;;;13.47;100.00
12969;BME280;6549;53.128;8.182;2023-08-06T04:40:23;100320.81;;;13.48;100.00
12969;BME280;6549;53.128;8.182;2023-08-06T04:43:24;100328.38;;;13.44;100.00
12969;BME280;6549;53.128;8.182;2023-08-06T04:46:24;100321.56;;;13.52;100.00
12969;BME280;6549;53.128;8.182;2023-08-06T04:49:24;100328.28;;;13.51;100.00
12969;BME280;6549;53.128;8.182;2023-08-06T04:52:25;100321.09;;;13.57;100.00
12969;BME280;6549;53.128;8.182;2023-08-06T04:55:28;100326.16;;;13.62;100.00
12969;BME280;6549;53.128;8.182;2023-08-06T04:58:28;100323.00;;;13.60;100.00
12969;BME280;6549;53.128;8.182;2023-08-06T05:01:28;100326.16;;;13.62;100.00
12969;BME280;6549;53.128;8.182;2023-08-06T05:04:29;100324.44;;;13.72;100.00
12969;BME280;6549;53.128;8.182;2023-08-06T05:07:29;100317.75;;;13.69;100.00
12969;BME280;6549;53.128;8.182;2023-08-06T05:10:29;100321.78;;;13.65;100.00
12969;BME280;6549;53.128;8.182;2023-08-06T05:13:30;100321.38;;;13.66;100.00
12969;BME280;6549;53.128;8.182;2023-08-06T05:16:30;100320.56;;;13.66;100.00
12969;BME280;6549;53.128;8.182;2023-08-06T05:19:30;100326.72;;;13.77;100.00
12969;BME280;6549;53.128;8.182;2023-08-06T05:22:30;100321.91;;;13.81;100.00
12969;BME280;6549;53.128;8.182;2023-08-06T05:25:31;100315.63;;;13.80;100.00
12969;BME280;6549;53.128;8.182;2023-08-06T05:28:31;100326.63;;;13.84;100.00
12969;BME280;6549;53.128;8.182;2023-08-06T05:31:32;100332.81;;;13.91;100.00
12969;BME280;6549;53.128;8.182;2023-08-06T05:34:32;100322.94;;;13.90;100.00
12969;BME280;6549;53.128;8.182;2023-08-06T05:37:32;100327.16;;;13.99;100.00
12969;BME280;6549;53.128;8.182;2023-08-06T05:40:33;100325.75;;;14.14;100.00
12969;BME280;6549;53.128;8.182;2023-08-06T05:43:34;100331.03;;;14.05;100.00
12969;BME280;6549;53.128;8.182;2023-08-06T05:46:34;100333.44;;;14.03;100.00
12969;BME280;6549;53.128;8.182;2023-08-06T05:49:34;100335.09;;;13.97;100.00
12969;BME280;6549;53.128;8.182;2023-08-06T05:52:35;100329.19;;;13.94;100.00
12969;BME280;6549;53.128;8.182;2023-08-06T05:55:35;100337.03;;;14.00;100.00
12969;BME280;6549;53.128;8.182;2023-08-06T05:58:35;100340.69;;;13.93;100.00
12969;BME280;6549;53.128;8.182;2023-08-06T06:01:36;100347.41;;;13.92;100.00
12969;BME280;6549;53.128;8.182;2023-08-06T06:04:37;100340.38;;;13.87;100.00
12969;BME280;6549;53.128;8.182;2023-08-06T06:07:37;100347.41;;;13.92;100.00
12969;BME280;6549;53.128;8.182;2023-08-06T06:10:37;100342.91;;;14.02;100.00
12969;BME280;6549;53.128;8.182;2023-08-06T06:13:37;100343.59;;;14.09;100.00
12969;BME280;6549;53.128;8.182;2023-08-06T06:16:38;100338.44;;;14.11;100.00
12969;BME280;6549;53.128;8.182;2023-08-06T06:19:38;100338.38;;;14.15;100.00
12969;BME280;6549;53.128;8.182;2023-08-06T06:22:38;100336.66;;;14.21;100.00
12969;BME280;6549;53.128;8.182;2023-08-06T06:25:57;100340.47;;;14.30;100.00
12969;BME280;6549;53.128;8.182;2023-08-06T06:28:58;100339.66;;;14.33;100.00
12969;BME280;6549;53.128;8.182;2023-08-06T06:31:58;100332.81;;;14.42;100.00
12969;BME280;6549;53.128;8.182;2023-08-06T06:34:58;100335.81;;;14.51;100.00
12969;BME280;6549;53.128;8.182;2023-08-06T06:37:59;100333.31;;;14.56;100.00
12969;BME280;6549;53.128;8.182;2023-08-06T06:41:00;100325.81;;;14.57;100.00
12969;BME280;6549;53.128;8.182;2023-08-06T06:44:00;100331.03;;;14.74;100.00
12969;BME280;6549;53.128;8.182;2023-08-06T06:47:00;100332.03;;;14.84;100.00
12969;BME280;6549;53.128;8.182;2023-08-06T06:50:01;100336.91;;;14.96;100.00
12969;BME280;6549;53.128;8.182;2023-08-06T06:53:01;100337.22;;;15.02;100.00
12969;BME280;6549;53.128;8.182;2023-08-06T06:56:03;100335.38;;;15.15;100.00
12969;BME280;6549;53.128;8.182;2023-08-06T06:59:03;100335.06;;;15.29;100.00
12969;BME280;6549;53.128;8.182;2023-08-06T07:02:04;100340.66;;;15.45;100.00
12969;BME280;6549;53.128;8.182;2023-08-06T07:05:04;100338.03;;;15.58;100.00
12969;BME280;6549;53.128;8.182;2023-08-06T07:08:06;100336.97;;;15.88;100.00
12969;BME280;6549;53.128;8.182;2023-08-06T07:11:07;100331.69;;;16.09;100.00
12969;BME280;6549;53.128;8.182;2023-08-06T07:14:07;100325.38;;;16.09;100.00
12969;BME280;6549;53.128;8.182;2023-08-06T07:17:08;100335.41;;;16.35;100.00
12969;BME280;6549;53.128;8.182;2023-08-06T07:20:08;100331.78;;;17.12;100.00
12969;BME280;6549;53.128;8.182;2023-08-06T07:23:08;100329.50;;;17.48;100.00
12969;BME280;6549;53.128;8.182;2023-08-06T07:26:09;100331.03;;;17.24;100.00
12969;BME280;6549;53.128;8.182;2023-08-06T07:29:09;100334.66;;;17.08;100.00
12969;BME280;6549;53.128;8.182;2023-08-06T07:32:09;100337.53;;;17.05;100.00
12969;BME280;6549;53.128;8.182;2023-08-06T07:35:10;100335.25;;;16.87;100.00
12969;BME280;6549;53.128;8.182;2023-08-06T07:38:12;100338.41;;;17.02;100.00
12969;BME280;6549;53.128;8.182;2023-08-06T07:41:12;100333.63;;;17.44;100.00
12969;BME280;6549;53.128;8.182;2023-08-06T07:44:13;100342.00;;;17.57;100.00
12969;BME280;6549;53.128;8.182;2023-08-06T07:47:13;100340.44;;;17.56;100.00
12969;BME280;6549;53.128;8.182;2023-08-06T07:50:14;100344.69;;;17.73;100.00
12969;BME280;6549;53.128;8.182;2023-08-06T07:53:14;100337.66;;;18.19;100.00
12969;BME280;6549;53.128;8.182;2023-08-06T07:56:15;100348.06;;;18.53;100.00
12969;BME280;6549;53.128;8.182;2023-08-06T07:59:15;100343.28;;;18.88;100.00
12969;BME280;6549;53.128;8.182;2023-08-06T08:02:15;100337.84;;;18.84;100.00
12969;BME280;6549;53.128;8.182;2023-08-06T08:05:16;100339.03;;;18.61;100.00
12969;BME280;6549;53.128;8.182;2023-08-06T08:08:16;100342.19;;;18.85;100.00
12969;BME280;6549;53.128;8.182;2023-08-06T08:11:17;100353.13;;;19.01;100.00
12969;BME280;6549;53.128;8.182;2023-08-06T08:14:18;100347.47;;;19.36;100.00
12969;BME280;6549;53.128;8.182;2023-08-06T08:17:18;100339.97;;;19.76;100.00
12969;BME280;6549;53.128;8.182;2023-08-06T08:20:19;100338.63;;;20.30;100.00
12969;BME280;6549;53.128;8.182;2023-08-06T08:23:19;100350.75;;;20.54;100.00
12969;BME280;6549;53.128;8.182;2023-08-06T08:26:19;100347.25;;;20.23;100.00
12969;BME280;6549;53.128;8.182;2023-08-06T08:29:20;100337.94;;;19.67;100.00
12969;BME280;6549;53.128;8.182;2023-08-06T08:32:21;100333.91;;;20.08;100.00
12969;BME280;6549;53.128;8.182;2023-08-06T08:35:21;100333.56;;;19.97;100.00
12969;BME280;6549;53.128;8.182;2023-08-06T08:38:22;100333.13;;;20.08;100.00
12969;BME280;6549;53.128;8.182;2023-08-06T08:41:22;100323.28;;;19.85;100.00
12969;BME280;6549;53.128;8.182;2023-08-06T08:44:23;100317.22;;;20.36;100.00
12969;BME280;6549;53.128;8.182;2023-08-06T08:47:28;100314.63;;;20.69;100.00
12969;BME280;6549;53.128;8.182;2023-08-06T08:50:29;100315.25;;;20.63;100.00
12969;BME280;6549;53.128;8.182;2023-08-06T08:53:30;100314.19;;;20.61;100.00
12969;BME280;6549;53.128;8.182;2023-08-06T08:56:31;100310.44;;;20.73;100.00
12969;BME280;6549;53.128;8.182;2023-08-06T08:59:33;100319.75;;;20.88;100.00
12969;BME280;6549;53.128;8.182;2023-08-06T09:02:34;100317.25;;;20.72;100.00
12969;BME280;6549;53.128;8.182;2023-08-06T09:05:35;100311.06;;;21.14;100.00
12969;BME280;6549;53.128;8.182;2023-08-06T09:08:37;100309.50;;;21.22;100.00
12969;BME280;6549;53.128;8.182;2023-08-06T09:11:43;100310.97;;;21.50;100.00
12969;BME280;6549;53.128;8.182;2023-08-06T09:14:43;100312.44;;;21.69;100.00
12969;BME280;6549;53.128;8.182;2023-08-06T09:17:43;100303.22;;;21.45;100.00
12969;BME280;6549;53.128;8.182;2023-08-06T09:20:44;100311.19;;;21.70;100.00
12969;BME280;6549;53.128;8.182;2023-08-06T09:23:44;100307.34;;;22.01;100.00
12969;BME280;6549;53.128;8.182;2023-08-06T09:26:44;100303.78;;;22.24;100.00
12969;BME280;6549;53.128;8.182;2023-08-06T09:29:45;100301.97;;;22.21;100.00
12969;BME280;6549;53.128;8.182;2023-08-06T09:32:46;100308.03;;;22.43;100.00
12969;BME280;6549;53.128;8.182;2023-08-06T09:35:53;100303.50;;;22.69;100.00
12969;BME280;6549;53.128;8.182;2023-08-06T09:38:55;100311.03;;;22.54;100.00
12969;BME280;6549;53.128;8.182;2023-08-06T09:41:57;100308.84;;;22.58;100.00
12969;BME280;6549;53.128;8.182;2023-08-06T09:45:06;100306.94;;;22.64;100.00
12969;BME280;6549;53.128;8.182;2023-08-06T09:48:08;100309.41;;;22.86;100.00
12969;BME280;6549;53.128;8.182;2023-08-06T09:51:09;100314.34;;;23.06;100.00
12969;BME280;6549;53.128;8.182;2023-08-06T09:54:12;100316.13;;;23.18;100.00
12969;BME280;6549;53.128;8.182;2023-08-06T09:57:13;100313.00;;;23.16;100.00
12969;BME280;6549;53.128;8.182;2023-08-06T10:00:14;100312.34;;;23.50;100.00
12969;BME280;6549;53.128;8.182;2023-08-06T10:03:15;100311.28;;;23.33;100.00
12969;BME280;6549;53.128;8.182;2023-08-06T10:06:18;100310.59;;;22.94;100.00
12969;BME280;6549;53.128;8.182;2023-08-06T10:09:20;100303.34;;;23.17;100.00
12969;BME280;6549;53.128;8.182;2023-08-06T10:12:21;100304.97;;;23.23;100.00
12969;BME280;6549;53.128;8.182;2023-08-06T10:15:25;100320.09;;;23.55;100.00
12969;BME280;6549;53.128;8.182;2023-08-06T10:18:26;100316.22;;;23.38;100.00
12969;BME280;6549;53.128;8.182;2023-08-06T10:21:27;100311.50;;;23.44;100.00
12969;BME280;6549;53.128;8.182;2023-08-06T10:24:44;100320.16;;;23.76;100.00
12969;BME280;6549;53.128;8.182;2023-08-06T10:27:53;100316.47;;;23.84;100.00
12969;BME280;6549;53.128;8.182;2023-08-06T10:30:53;100313.41;;;23.67;100.00
12969;BME280;6549;53.128;8.182;2023-08-06T10:33:54;100302.94;;;23.83;100.00
12969;BME280;6549;53.128;8.182;2023-08-06T10:36:55;100306.84;;;23.56;100.00
12969;BME280;6549;53.128;8.182;2023-08-06T10:39:55;100301.53;;;23.58;100.00
12969;BME280;6549;53.128;8.182;2023-08-06T10:42:55;100306.22;;;23.81;100.00
12969;BME280;6549;53.128;8.182;2023-08-06T10:45:57;100303.72;;;24.03;100.00
12969;BME280;6549;53.128;8.182;2023-08-06T10:48:58;100308.63;;;24.43;93.09
12969;BME280;6549;53.128;8.182;2023-08-06T10:51:58;100303.78;;;24.64;100.00
12969;BME280;6549;53.128;8.182;2023-08-06T10:54:58;100302.09;;;24.32;100.00
12969;BME280;6549;53.128;8.182;2023-08-06T10:57:59;100306.31;;;23.87;100.00
12969;BME280;6549;53.128;8.182;2023-08-06T11:00:59;100297.25;;;23.33;100.00
12969;BME280;6549;53.128;8.182;2023-08-06T11:04:02;100297.44;;;23.73;94.81
12969;BME280;6549;53.128;8.182;2023-08-06T11:07:02;100294.81;;;24.60;98.32
12969;BME280;6549;53.128;8.182;2023-08-06T11:10:08;100300.13;;;24.17;100.00
12969;BME280;6549;53.128;8.182;2023-08-06T11:13:08;100291.06;;;23.29;100.00
12969;BME280;6549;53.128;8.182;2023-08-06T11:16:09;100293.09;;;23.28;100.00
12969;BME280;6549;53.128;8.182;2023-08-06T11:19:10;100285.19;;;22.83;100.00
12969;BME280;6549;53.128;8.182;2023-08-06T11:22:10;100279.78;;;22.56;100.00
12969;BME280;6549;53.128;8.182;2023-08-06T11:25:10;100283.81;;;22.93;100.00
12969;BME280;6549;53.128;8.182;2023-08-06T11:28:11;100290.09;;;23.61;100.00
12969;BME280;6549;53.128;8.182;2023-08-06T11:31:22;100284.03;;;23.98;90.24
12969;BME280;6549;53.128;8.182;2023-08-06T11:34:23;100284.59;;;24.02;98.20
12969;BME280;6549;53.128;8.182;2023-08-06T11:37:24;100282.31;;;24.21;100.00
12969;BME280;6549;53.128;8.182;2023-08-06T11:40:25;100279.16;;;24.79;100.00
12969;BME280;6549;53.128;8.182;2023-08-06T11:43:25;100286.72;;;24.27;98.80
12969;BME280;6549;53.128;8.182;2023-08-06T11:46:26;100292.72;;;23.50;93.80
12969;BME280;6549;53.128;8.182;2023-08-06T11:49:44;100286.53;;;23.32;100.00
12969;BME280;6549;53.128;8.182;2023-08-06T11:52:45;100290.78;;;23.71;100.00
12969;BME280;6549;53.128;8.182;2023-08-06T11:55:45;100291.91;;;23.79;100.00
12969;BME280;6549;53.128;8.182;2023-08-06T11:58:45;100286.72;;;23.43;100.00
12969;BME280;6549;53.128;8.182;2023-08-06T12:01:46;100283.47;;;23.94;100.00
12969;BME280;6549;53.128;8.182;2023-08-06T12:05:00;100287.75;;;24.09;100.00
12969;BME280;6549;53.128;8.182;2023-08-06T12:08:02;100282.09;;;24.24;90.96
12969;BME280;6549;53.128;8.182;2023-08-06T12:11:03;100268.44;;;24.78;85.42
12969;BME280;6549;53.128;8.182;2023-08-06T12:14:03;100278.47;;;24.84;81.53
12969;BME280;6549;53.128;8.182;2023-08-06T12:17:03;100265.75;;;25.15;85.12
12969;BME280;6549;53.128;8.182;2023-08-06T12:20:04;100256.53;;;25.14;83.30
12969;BME280;6549;53.128;8.182;2023-08-06T12:23:05;100264.25;;;24.68;81.34
12969;BME280;6549;53.128;8.182;2023-08-06T12:26:06;100263.16;;;23.84;83.25
12969;BME280;6549;53.128;8.182;2023-08-06T12:29:06;100265.91;;;23.99;90.33
12969;BME280;6549;53.128;8.182;2023-08-06T12:32:06;100265.09;;;24.53;88.05
12969;BME280;6549;53.128;8.182;2023-08-06T12:35:07;100260.44;;;24.25;82.73
12969;BME280;6549;53.128;8.182;2023-08-06T12:38:08;100260.44;;;24.25;83.68
12969;BME280;6549;53.128;8.182;2023-08-06T12:41:08;100265.81;;;24.48;74.43
12969;BME280;6549;53.128;8.182;2023-08-06T12:44:08;100260.97;;;24.75;79.17
12969;BME280;6549;53.128;8.182;2023-08-06T12:47:09;100261.50;;;24.12;85.38
12969;BME280;6549;53.128;8.182;2023-08-06T12:50:09;100251.16;;;24.04;91.66
12969;BME280;6549;53.128;8.182;2023-08-06T12:53:10;100248.78;;;24.57;87.38
12969;BME280;6549;53.128;8.182;2023-08-06T12:56:10;100245.03;;;25.12;83.77
12969;BME280;6549;53.128;8.182;2023-08-06T12:59:13;100244.78;;;25.47;84.40
12969;BME280;6549;53.128;8.182;2023-08-06T13:02:13;100255.41;;;25.58;77.43
12969;BME280;6549;53.128;8.182;2023-08-06T13:05:14;100250.28;;;25.30;75.71
12969;BME280;6549;53.128;8.182;2023-08-06T13:08:14;100253.06;;;24.12;76.91
12969;BME280;6549;53.128;8.182;2023-08-06T13:11:14;100257.66;;;24.10;82.69
12969;BME280;6549;53.128;8.182;2023-08-06T13:14:15;100263.25;;;23.90;85.24
12969;BME280;6549;53.128;8.182;2023-08-06T13:17:15;100252.59;;;23.94;89.36
12969;BME280;6549;53.128;8.182;2023-08-06T13:20:15;100259.84;;;23.07;92.77
12969;BME280;6549;53.128;8.182;2023-08-06T13:23:16;100254.53;;;22.79;96.97
12969;BME280;6549;53.128;8.182;2023-08-06T13:26:17;100256.69;;;22.22;100.00
12969;BME280;6549;53.128;8.182;2023-08-06T13:29:17;100254.13;;;22.33;100.00
12969;BME280;6549;53.128;8.182;2023-08-06T13:32:18;100251.56;;;22.83;100.00
12969;BME280;6549;53.128;8.182;2023-08-06T13:35:18;100249.81;;;22.86;100.00
12969;BME280;6549;53.128;8.182;2023-08-06T13:38:18;100250.59;;;22.86;100.00
12969;BME280;6549;53.128;8.182;2023-08-06T13:41:19;100258.91;;;23.10;96.63
12969;BME280;6549;53.128;8.182;2023-08-06T13:44:19;100260.84;;;23.04;100.00
12969;BME280;6549;53.128;8.182;2023-08-06T13:47:19;100258.09;;;23.39;99.46
12969;BME280;6549;53.128;8.182;2023-08-06T13:50:20;100259.44;;;23.43;98.04
12969;BME280;6549;53.128;8.182;2023-08-06T13:53:22;100255.38;;;23.59;100.00
12969;BME280;6549;53.128;8.182;2023-08-06T13:56:22;100256.34;;;23.70;100.00
12969;BME280;6549;53.128;8.182;2023-08-06T13:59:22;100255.50;;;24.20;100.00
12969;BME280;6549;53.128;8.182;2023-08-06T14:02:24;100261.41;;;23.87;93.57
12969;BME280;6549;53.128;8.182;2023-08-06T14:05:25;100268.53;;;23.67;100.00
12969;BME280;6549;53.128;8.182;2023-08-06T14:08:26;100269.53;;;23.35;100.00
12969;BME280;6549;53.128;8.182;2023-08-06T14:11:26;100271.06;;;22.77;100.00
12969;BME280;6549;53.128;8.182;2023-08-06T14:14:26;100259.94;;;22.45;100.00
12969;BME280;6549;53.128;8.182;2023-08-06T14:17:27;100259.72;;;22.33;100.00
12969;BME280;6549;53.128;8.182;2023-08-06T14:20:27;100263.69;;;22.65;100.00
12969;BME280;6549;53.128;8.182;2023-08-06T14:23:28;100273.19;;;23.12;100.00
12969;BME280;6549;53.128;8.182;2023-08-06T14:26:28;100272.06;;;22.65;100.00
12969;BME280;6549;53.128;8.182;2023-08-06T14:29:28;100268.44;;;22.89;100.00
12969;BME280;6549;53.128;8.182;2023-08-06T14:32:29;100266.63;;;22.86;100.00
12969;BME280;6549;53.128;8.182;2023-08-06T14:35:29;100267.78;;;22.94;100.00
12969;BME280;6549;53.128;8.182;2023-08-06T14:38:29;100267.81;;;23.23;100.00
12969;BME280;6549;53.128;8.182;2023-08-06T14:41:30;100267.59;;;23.12;100.00
12969;BME280;6549;53.128;8.182;2023-08-06T14:44:30;100279.56;;;23.12;100.00
12969;BME280;6549;53.128;8.182;2023-08-06T14:47:31;100263.00;;;22.32;100.00
12969;BME280;6549;53.128;8.182;2023-08-06T14:50:31;100264.69;;;22.53;100.00
12969;BME280;6549;53.128;8.182;2023-08-06T14:53:31;100271.31;;;22.41;100.00
12969;BME280;6549;53.128;8.182;2023-08-06T14:56:31;100277.16;;;22.52;100.00
12969;BME280;6549;53.128;8.182;2023-08-06T14:59:32;100274.09;;;22.03;100.00
12969;BME280;6549;53.128;8.182;2023-08-06T15:02:32;100264.22;;;21.83;100.00
12969;BME280;6549;53.128;8.182;2023-08-06T15:05:33;100275.81;;;21.67;100.00
12969;BME280;6549;53.128;8.182;2023-08-06T15:08:33;100270.06;;;21.62;100.00
12969;BME280;6549;53.128;8.182;2023-08-06T15:11:33;100277.56;;;21.88;100.00
12969;BME280;6549;53.128;8.182;2023-08-06T15:14:34;100280.84;;;21.78;100.00
12969;BME280;6549;53.128;8.182;2023-08-06T15:17:34;100280.25;;;21.41;100.00
12969;BME280;6549;53.128;8.182;2023-08-06T15:20:34;100283.06;;;21.32;100.00
12969;BME280;6549;53.128;8.182;2023-08-06T15:23:35;100288.25;;;21.57;100.00
12969;BME280;6549;53.128;8.182;2023-08-06T15:26:36;100290.06;;;21.69;100.00
12969;BME280;6549;53.128;8.182;2023-08-06T15:29:37;100294.34;;;21.88;100.00
12969;BME280;6549;53.128;8.182;2023-08-06T15:32:37;100300.31;;;21.72;100.00
12969;BME280;6549;53.128;8.182;2023-08-06T15:35:37;100296.88;;;21.77;100.00
12969;BME280;6549;53.128;8.182;2023-08-06T15:38:38;100298.09;;;21.85;100.00
12969;BME280;6549;53.128;8.182;2023-08-06T15:41:38;100298.50;;;22.02;100.00
12969;BME280;6549;53.128;8.182;2023-08-06T15:44:38;100312.84;;;22.19;100.00
12969;BME280;6549;53.128;8.182;2023-08-06T15:47:39;100309.44;;;22.15;100.00
12969;BME280;6549;53.128;8.182;2023-08-06T15:50:40;100307.38;;;21.91;100.00